sensor_id;sensor_type;location;lat;lon;timestamp;temperature;humidity
34877;DHT22;21086;44.780;17.194;2023-04-29T00:02:30;14.90;99.90
34877;DHT22;21086;44.780;17.194;2023-04-29T00:04:59;15.40;99.90
34877;DHT22;21086;44.780;17.194;2023-04-29T00:07:29;12.80;99.90
34877;DHT22;21086;44.780;17.194;2023-04-29T00:09:58;14.30;99.90
34877;DHT22;21086;44.780;17.194;2023-04-29T00:12:27;14.20;99.90
34877;DHT22;21086;44.780;17.194;2023-04-29T00:14:59;14.70;99.90
34877;DHT22;21086;44.780;17.194;2023-04-29T00:17:29;15.90;99.90
34877;DHT22;21086;44.780;17.194;2023-04-29T00:20:02;12.20;99.90
34877;DHT22;21086;44.780;17.194;2023-04-29T00:22:30;14.30;99.90
34877;DHT22;21086;44.780;17.194;2023-04-29T00:24:57;14.20;99.90
34877;DHT22;21086;44.780;17.194;2023-04-29T00:27:25;13.80;99.90
34877;DHT22;21086;44.780;17.194;2023-04-29T00:29:53;15.50;99.90
34877;DHT22;21086;44.780;17.194;2023-04-29T00:32:21;14.50;99.90
34877;DHT22;21086;44.780;17.194;2023-04-29T00:34:49;14.40;99.90
34877;DHT22;21086;44.780;17.194;2023-04-29T00:37:16;13.80;99.90
34877;DHT22;21086;44.780;17.194;2023-04-29T00:39:44;14.10;99.90
34877;DHT22;21086;44.780;17.194;2023-04-29T00:42:11;14.30;99.90
34877;DHT22;21086;44.780;17.194;2023-04-29T00:44:38;14.40;99.90
34877;DHT22;21086;44.780;17.194;2023-04-29T00:47:06;12.80;99.90
34877;DHT22;21086;44.780;17.194;2023-04-29T00:49:38;14.30;99.90
34877;DHT22;21086;44.780;17.194;2023-04-29T00:52:06;14.30;99.90
34877;DHT22;21086;44.780;17.194;2023-04-29T00:54:34;12.60;99.90
34877;DHT22;21086;44.780;17.194;2023-04-29T00:57:03;14.30;99.90
34877;DHT22;21086;44.780;17.194;2023-04-29T00:59:36;12.70;99.90
34877;DHT22;21086;44.780;17.194;2023-04-29T01:02:04;15.30;99.90
34877;DHT22;21086;44.780;17.194;2023-04-29T01:04:31;14.40;99.90
34877;DHT22;21086;44.780;17.194;2023-04-29T01:12:51;14.40;99.90
34877;DHT22;21086;44.780;17.194;2023-04-29T01:15:24;14.50;99.90
34877;DHT22;21086;44.780;17.194;2023-04-29T01:17:59;14.40;99.90
34877;DHT22;21086;44.780;17.194;2023-04-29T01:20:27;14.30;99.90
34877;DHT22;21086;44.780;17.194;2023-04-29T01:22:54;14.40;99.90
34877;DHT22;21086;44.780;17.194;2023-04-29T01:25:21;14.30;99.90
34877;DHT22;21086;44.780;17.194;2023-04-29T01:28:20;14.30;99.90
34877;DHT22;21086;44.780;17.194;2023-04-29T01:39:33;13.80;99.90
34877;DHT22;21086;44.780;17.194;2023-04-29T01:42:32;14.10;99.90
34877;DHT22;21086;44.780;17.194;2023-04-29T01:45:07;15.90;99.90
34877;DHT22;21086;44.780;17.194;2023-04-29T01:47:41;14.20;99.90
34877;DHT22;21086;44.780;17.194;2023-04-29T01:50:11;12.40;99.90
34877;DHT22;21086;44.780;17.194;2023-04-29T01:52:41;13.20;99.90
34877;DHT22;21086;44.780;17.194;2023-04-29T01:55:10;15.00;99.90
34877;DHT22;21086;44.780;17.194;2023-04-29T01:57:40;14.90;99.90
34877;DHT22;21086;44.780;17.194;2023-04-29T02:00:11;14.20;99.90
34877;DHT22;21086;44.780;17.194;2023-04-29T02:02:39;14.20;99.90
34877;DHT22;21086;44.780;17.194;2023-04-29T02:05:13;12.40;99.90
34877;DHT22;21086;44.780;17.194;2023-04-29T02:07:45;15.10;99.90
34877;DHT22;21086;44.780;17.194;2023-04-29T02:10:18;15.50;99.90
34877;DHT22;21086;44.780;17.194;2023-04-29T02:12:52;13.80;99.90
34877;DHT22;21086;44.780;17.194;2023-04-29T02:15:27;12.80;99.90
34877;DHT22;21086;44.780;17.194;2023-04-29T02:17:59;14.40;99.90
34877;DHT22;21086;44.780;17.194;2023-04-29T02:20:30;13.00;99.90
34877;DHT22;21086;44.780;17.194;2023-04-29T02:22:57;12.40;99.90
34877;DHT22;21086;44.780;17.194;2023-04-29T02:25:25;12.60;99.90
34877;DHT22;21086;44.780;17.194;2023-04-29T02:27:56;14.50;99.90
34877;DHT22;21086;44.780;17.194;2023-04-29T02:30:25;13.20;99.90
34877;DHT22;21086;44.780;17.194;2023-04-29T02:32:54;15.40;99.90
34877;DHT22;21086;44.780;17.194;2023-04-29T02:35:22;13.90;99.90
34877;DHT22;21086;44.780;17.194;2023-04-29T02:37:51;12.90;99.90
34877;DHT22;21086;44.780;17.194;2023-04-29T02:40:21;13.30;99.90
34877;DHT22;21086;44.780;17.194;2023-04-29T02:42:52;12.80;99.90
34877;DHT22;21086;44.780;17.194;2023-04-29T02:45:21;12.40;99.90
34877;DHT22;21086;44.780;17.194;2023-04-29T02:47:49;13.30;99.90
34877;DHT22;21086;44.780;17.194;2023-04-29T02:50:17;13.10;99.90
34877;DHT22;21086;44.780;17.194;2023-04-29T02:52:49;13.60;99.90
34877;DHT22;21086;44.780;17.194;2023-04-29T02:55:19;12.60;99.90
34877;DHT22;21086;44.780;17.194;2023-04-29T02:57:50;14.30;99.90
34877;DHT22;21086;44.780;17.194;2023-04-29T03:00:20;15.90;99.90
34877;DHT22;21086;44.780;17.194;2023-04-29T03:02:49;13.50;99.90
34877;DHT22;21086;44.780;17.194;2023-04-29T03:05:19;12.80;99.90
34877;DHT22;21086;44.780;17.194;2023-04-29T03:07:47;13.50;99.90
34877;DHT22;21086;44.780;17.194;2023-04-29T03:10:14;13.50;99.90
34877;DHT22;21086;44.780;17.194;2023-04-29T03:12:42;13.60;99.90
34877;DHT22;21086;44.780;17.194;2023-04-29T03:15:10;13.40;99.90
34877;DHT22;21086;44.780;17.194;2023-04-29T03:17:37;13.50;99.90
34877;DHT22;21086;44.780;17.194;2023-04-29T03:20:05;13.60;99.90
34877;DHT22;21086;44.780;17.194;2023-04-29T03:22:34;13.30;99.90
34877;DHT22;21086;44.780;17.194;2023-04-29T03:25:02;12.70;99.90
34877;DHT22;21086;44.780;17.194;2023-04-29T03:27:30;13.20;99.90
34877;DHT22;21086;44.780;17.194;2023-04-29T03:29:59;15.60;99.90
34877;DHT22;21086;44.780;17.194;2023-04-29T03:32:29;13.60;99.90
34877;DHT22;21086;44.780;17.194;2023-04-29T03:34:59;13.70;99.90
34877;DHT22;21086;44.780;17.194;2023-04-29T03:37:30;12.10;99.90
34877;DHT22;21086;44.780;17.194;2023-04-29T03:39:59;13.60;99.90
34877;DHT22;21086;44.780;17.194;2023-04-29T03:42:27;13.70;99.90
34877;DHT22;21086;44.780;17.194;2023-04-29T03:44:56;11.80;99.90
34877;DHT22;21086;44.780;17.194;2023-04-29T03:47:24;12.00;99.90
34877;DHT22;21086;44.780;17.194;2023-04-29T03:49:53;13.10;99.90
34877;DHT22;21086;44.780;17.194;2023-04-29T03:52:21;13.10;99.90
34877;DHT22;21086;44.780;17.194;2023-04-29T03:54:50;12.00;99.90
34877;DHT22;21086;44.780;17.194;2023-04-29T03:57:19;13.50;99.90
34877;DHT22;21086;44.780;17.194;2023-04-29T03:59:47;13.00;99.90
34877;DHT22;21086;44.780;17.194;2023-04-29T04:02:17;15.40;99.90
34877;DHT22;21086;44.780;17.194;2023-04-29T04:04:47;13.30;99.90
34877;DHT22;21086;44.780;17.194;2023-04-29T04:07:16;14.30;99.90
34877;DHT22;21086;44.780;17.194;2023-04-29T04:09:45;13.10;99.90
34877;DHT22;21086;44.780;17.194;2023-04-29T04:12:12;14.70;99.90
34877;DHT22;21086;44.780;17.194;2023-04-29T04:14:40;13.10;99.90
34877;DHT22;21086;44.780;17.194;2023-04-29T04:17:07;13.30;99.90
34877;DHT22;21086;44.780;17.194;2023-04-29T04:19:35;13.00;99.90
34877;DHT22;21086;44.780;17.194;2023-04-29T04:22:03;13.00;99.90
34877;DHT22;21086;44.780;17.194;2023-04-29T04:24:30;11.40;99.90
34877;DHT22;21086;44.780;17.194;2023-04-29T04:26:57;13.00;99.90
34877;DHT22;21086;44.780;17.194;2023-04-29T04:29:25;13.10;99.90
34877;DHT22;21086;44.780;17.194;2023-04-29T04:31:53;11.40;99.90
34877;DHT22;21086;44.780;17.194;2023-04-29T04:34:21;11.60;99.90
34877;DHT22;21086;44.780;17.194;2023-04-29T04:36:49;11.40;99.90
34877;DHT22;21086;44.780;17.194;2023-04-29T04:39:18;13.90;99.90
34877;DHT22;21086;44.780;17.194;2023-04-29T04:41:45;13.20;99.90
34877;DHT22;21086;44.780;17.194;2023-04-29T04:44:13;13.30;99.90
34877;DHT22;21086;44.780;17.194;2023-04-29T04:46:40;13.30;99.90
34877;DHT22;21086;44.780;17.194;2023-04-29T04:49:08;11.70;99.90
34877;DHT22;21086;44.780;17.194;2023-04-29T04:51:35;15.10;99.90
34877;DHT22;21086;44.780;17.194;2023-04-29T04:54:03;13.60;99.90
34877;DHT22;21086;44.780;17.194;2023-04-29T04:56:30;13.70;99.90
34877;DHT22;21086;44.780;17.194;2023-04-29T04:58:57;13.70;99.90
34877;DHT22;21086;44.780;17.194;2023-04-29T05:01:25;13.80;99.90
34877;DHT22;21086;44.780;17.194;2023-04-29T05:03:52;13.80;99.90
34877;DHT22;21086;44.780;17.194;2023-04-29T05:06:19;13.80;99.90
34877;DHT22;21086;44.780;17.194;2023-04-29T05:08:47;13.80;99.90
34877;DHT22;21086;44.780;17.194;2023-04-29T05:11:18;14.00;99.90
34877;DHT22;21086;44.780;17.194;2023-04-29T05:13:45;14.20;99.90
34877;DHT22;21086;44.780;17.194;2023-04-29T05:16:13;14.30;99.90
34877;DHT22;21086;44.780;17.194;2023-04-29T05:18:40;14.40;99.90
34877;DHT22;21086;44.780;17.194;2023-04-29T05:21:12;14.50;99.90
34877;DHT22;21086;44.780;17.194;2023-04-29T05:23:43;12.90;99.90
34877;DHT22;21086;44.780;17.194;2023-04-29T05:26:10;14.60;99.90
34877;DHT22;21086;44.780;17.194;2023-04-29T05:28:38;14.70;99.90
34877;DHT22;21086;44.780;17.194;2023-04-29T05:31:04;14.80;99.90
34877;DHT22;21086;44.780;17.194;2023-04-29T05:33:32;15.00;99.90
34877;DHT22;21086;44.780;17.194;2023-04-29T05:35:59;15.10;99.90
34877;DHT22;21086;44.780;17.194;2023-04-29T05:38:27;15.20;99.90
34877;DHT22;21086;44.780;17.194;2023-04-29T05:40:55;15.40;99.90
34877;DHT22;21086;44.780;17.194;2023-04-29T05:43:23;15.60;99.90
34877;DHT22;21086;44.780;17.194;2023-04-29T05:45:50;15.60;99.90
34877;DHT22;21086;44.780;17.194;2023-04-29T05:48:17;15.80;99.90
34877;DHT22;21086;44.780;17.194;2023-04-29T05:50:44;16.00;99.90
34877;DHT22;21086;44.780;17.194;2023-04-29T05:53:11;16.10;99.90
34877;DHT22;21086;44.780;17.194;2023-04-29T05:55:39;16.30;99.90
34877;DHT22;21086;44.780;17.194;2023-04-29T05:58:06;16.40;99.90
34877;DHT22;21086;44.780;17.194;2023-04-29T06:00:33;16.40;99.90
34877;DHT22;21086;44.780;17.194;2023-04-29T06:03:00;16.50;99.90
34877;DHT22;21086;44.780;17.194;2023-04-29T06:05:28;16.80;99.90
34877;DHT22;21086;44.780;17.194;2023-04-29T06:07:55;16.90;99.90
34877;DHT22;21086;44.780;17.194;2023-04-29T06:10:22;17.00;99.90
34877;DHT22;21086;44.780;17.194;2023-04-29T06:12:49;17.00;99.90
34877;DHT22;21086;44.780;17.194;2023-04-29T06:15:17;17.00;99.90
34877;DHT22;21086;44.780;17.194;2023-04-29T06:17:45;17.10;99.90
34877;DHT22;21086;44.780;17.194;2023-04-29T06:20:12;17.10;99.90
34877;DHT22;21086;44.780;17.194;2023-04-29T06:22:40;17.00;99.90
34877;DHT22;21086;44.780;17.194;2023-04-29T06:25:07;17.20;99.90
34877;DHT22;21086;44.780;17.194;2023-04-29T06:27:34;17.20;99.90
34877;DHT22;21086;44.780;17.194;2023-04-29T06:30:02;17.20;99.90
34877;DHT22;21086;44.780;17.194;2023-04-29T06:32:29;17.30;99.90
34877;DHT22;21086;44.780;17.194;2023-04-29T06:34:56;17.50;99.90
34877;DHT22;21086;44.780;17.194;2023-04-29T06:37:23;17.70;99.90
34877;DHT22;21086;44.780;17.194;2023-04-29T06:39:50;17.90;99.90
34877;DHT22;21086;44.780;17.194;2023-04-29T06:42:17;18.10;99.90
34877;DHT22;21086;44.780;17.194;2023-04-29T06:44:45;18.30;99.90
34877;DHT22;21086;44.780;17.194;2023-04-29T06:47:12;18.50;99.90
34877;DHT22;21086;44.780;17.194;2023-04-29T06:49:39;18.50;99.90
34877;DHT22;21086;44.780;17.194;2023-04-29T06:52:06;18.50;99.90
34877;DHT22;21086;44.780;17.194;2023-04-29T06:54:34;18.50;99.90
34877;DHT22;21086;44.780;17.194;2023-04-29T06:57:01;18.50;99.90
34877;DHT22;21086;44.780;17.194;2023-04-29T06:59:28;18.50;99.90
34877;DHT22;21086;44.780;17.194;2023-04-29T07:01:55;18.60;99.90
34877;DHT22;21086;44.780;17.194;2023-04-29T07:04:22;18.60;99.90
34877;DHT22;21086;44.780;17.194;2023-04-29T07:06:50;18.70;99.90
34877;DHT22;21086;44.780;17.194;2023-04-29T07:09:17;18.80;99.90
34877;DHT22;21086;44.780;17.194;2023-04-29T07:11:44;18.90;99.90
34877;DHT22;21086;44.780;17.194;2023-04-29T07:14:11;19.10;99.90
34877;DHT22;21086;44.780;17.194;2023-04-29T07:16:38;19.00;99.90
34877;DHT22;21086;44.780;17.194;2023-04-29T07:19:05;19.00;99.90
34877;DHT22;21086;44.780;17.194;2023-04-29T07:21:32;19.30;99.90
34877;DHT22;21086;44.780;17.194;2023-04-29T07:24:01;19.60;99.90
34877;DHT22;21086;44.780;17.194;2023-04-29T07:26:30;19.90;99.90
34877;DHT22;21086;44.780;17.194;2023-04-29T07:28:57;20.00;99.90
34877;DHT22;21086;44.780;17.194;2023-04-29T07:31:24;20.30;99.90
34877;DHT22;21086;44.780;17.194;2023-04-29T07:33:52;20.40;99.90
34877;DHT22;21086;44.780;17.194;2023-04-29T07:36:18;20.20;99.90
34877;DHT22;21086;44.780;17.194;2023-04-29T07:38:46;20.20;99.90
34877;DHT22;21086;44.780;17.194;2023-04-29T07:41:12;20.30;99.90
34877;DHT22;21086;44.780;17.194;2023-04-29T07:43:39;20.40;99.90
34877;DHT22;21086;44.780;17.194;2023-04-29T07:46:08;20.60;99.90
34877;DHT22;21086;44.780;17.194;2023-04-29T07:48:37;20.80;99.90
34877;DHT22;21086;44.780;17.194;2023-04-29T07:51:12;20.90;99.90
34877;DHT22;21086;44.780;17.194;2023-04-29T07:53:40;21.10;99.90
34877;DHT22;21086;44.780;17.194;2023-04-29T07:56:08;21.20;99.90
34877;DHT22;21086;44.780;17.194;2023-04-29T07:58:35;21.40;99.90
34877;DHT22;21086;44.780;17.194;2023-04-29T08:01:09;21.70;99.90
34877;DHT22;21086;44.780;17.194;2023-04-29T08:03:38;21.90;99.90
34877;DHT22;21086;44.780;17.194;2023-04-29T08:06:07;22.00;99.90
34877;DHT22;21086;44.780;17.194;2023-04-29T08:08:35;22.20;99.90
34877;DHT22;21086;44.780;17.194;2023-04-29T08:11:02;22.30;99.90
34877;DHT22;21086;44.780;17.194;2023-04-29T08:13:32;22.40;99.90
34877;DHT22;21086;44.780;17.194;2023-04-29T08:15:59;22.70;99.90
34877;DHT22;21086;44.780;17.194;2023-04-29T08:18:26;22.80;99.90
34877;DHT22;21086;44.780;17.194;2023-04-29T08:20:53;22.60;99.90
34877;DHT22;21086;44.780;17.194;2023-04-29T08:23:20;22.80;99.90
34877;DHT22;21086;44.780;17.194;2023-04-29T08:25:47;22.90;99.90
34877;DHT22;21086;44.780;17.194;2023-04-29T08:28:17;23.00;99.90
34877;DHT22;21086;44.780;17.194;2023-04-29T08:30:45;23.10;99.90
34877;DHT22;21086;44.780;17.194;2023-04-29T08:33:13;23.30;99.90
34877;DHT22;21086;44.780;17.194;2023-04-29T08:35:40;23.30;99.90
34877;DHT22;21086;44.780;17.194;2023-04-29T08:38:08;23.30;99.90
34877;DHT22;21086;44.780;17.194;2023-04-29T08:40:41;23.10;99.90
34877;DHT22;21086;44.780;17.194;2023-04-29T08:43:13;22.90;99.90
34877;DHT22;21086;44.780;17.194;2023-04-29T08:45:42;22.90;99.90
34877;DHT22;21086;44.780;17.194;2023-04-29T08:48:09;23.30;99.90
34877;DHT22;21086;44.780;17.194;2023-04-29T08:50:39;23.40;99.90
34877;DHT22;21086;44.780;17.194;2023-04-29T08:53:08;23.40;99.90
34877;DHT22;21086;44.780;17.194;2023-04-29T08:55:39;23.60;99.90
34877;DHT22;21086;44.780;17.194;2023-04-29T08:58:08;23.70;99.90
34877;DHT22;21086;44.780;17.194;2023-04-29T09:00:36;23.90;99.90
34877;DHT22;21086;44.780;17.194;2023-04-29T09:05:37;24.10;99.90
34877;DHT22;21086;44.780;17.194;2023-04-29T09:08:07;24.10;99.90
34877;DHT22;21086;44.780;17.194;2023-04-29T09:10:36;24.30;99.90
34877;DHT22;21086;44.780;17.194;2023-04-29T09:13:04;24.40;99.90
34877;DHT22;21086;44.780;17.194;2023-04-29T09:15:35;24.50;99.90
34877;DHT22;21086;44.780;17.194;2023-04-29T09:18:03;24.60;99.90
34877;DHT22;21086;44.780;17.194;2023-04-29T09:20:31;24.60;99.90
34877;DHT22;21086;44.780;17.194;2023-04-29T09:23:01;24.60;99.90
34877;DHT22;21086;44.780;17.194;2023-04-29T09:25:29;24.40;99.90
34877;DHT22;21086;44.780;17.194;2023-04-29T09:27:57;24.50;99.90
34877;DHT22;21086;44.780;17.194;2023-04-29T09:30:24;24.60;99.90
34877;DHT22;21086;44.780;17.194;2023-04-29T09:33:08;24.30;99.90
34877;DHT22;21086;44.780;17.194;2023-04-29T09:35:35;24.30;99.90
34877;DHT22;21086;44.780;17.194;2023-04-29T09:38:13;24.30;99.90
34877;DHT22;21086;44.780;17.194;2023-04-29T09:40:42;24.30;99.90
34877;DHT22;21086;44.780;17.194;2023-04-29T09:43:24;24.60;99.90
34877;DHT22;21086;44.780;17.194;2023-04-29T09:45:52;25.00;99.90
34877;DHT22;21086;44.780;17.194;2023-04-29T09:48:19;25.40;99.90
34877;DHT22;21086;44.780;17.194;2023-04-29T09:51:01;25.90;99.90
34877;DHT22;21086;44.780;17.194;2023-04-29T09:53:29;26.20;99.90
34877;DHT22;21086;44.780;17.194;2023-04-29T09:56:01;26.30;99.90
34877;DHT22;21086;44.780;17.194;2023-04-29T09:58:33;26.70;99.90
34877;DHT22;21086;44.780;17.194;2023-04-29T10:01:06;26.70;99.90
34877;DHT22;21086;44.780;17.194;2023-04-29T10:03:36;26.70;99.90
34877;DHT22;21086;44.780;17.194;2023-04-29T10:06:06;26.40;99.90
34877;DHT22;21086;44.780;17.194;2023-04-29T10:08:34;26.50;99.90
34877;DHT22;21086;44.780;17.194;2023-04-29T10:11:04;26.50;99.90
34877;DHT22;21086;44.780;17.194;2023-04-29T10:13:34;26.40;99.90
34877;DHT22;21086;44.780;17.194;2023-04-29T10:18:40;26.30;99.90
34877;DHT22;21086;44.780;17.194;2023-04-29T10:21:08;26.30;99.90
34877;DHT22;21086;44.780;17.194;2023-04-29T10:23:38;26.40;99.90
34877;DHT22;21086;44.780;17.194;2023-04-29T10:26:11;26.40;99.90
34877;DHT22;21086;44.780;17.194;2023-04-29T10:28:39;26.60;99.90
34877;DHT22;21086;44.780;17.194;2023-04-29T10:31:08;26.80;99.90
34877;DHT22;21086;44.780;17.194;2023-04-29T10:33:36;26.90;99.90
34877;DHT22;21086;44.780;17.194;2023-04-29T10:36:06;27.00;99.90
34877;DHT22;21086;44.780;17.194;2023-04-29T10:38:41;26.90;99.90
34877;DHT22;21086;44.780;17.194;2023-04-29T10:41:26;26.90;99.90
34877;DHT22;21086;44.780;17.194;2023-04-29T10:43:54;26.90;99.90
34877;DHT22;21086;44.780;17.194;2023-04-29T10:46:29;26.80;99.90
34877;DHT22;21086;44.780;17.194;2023-04-29T10:49:00;26.90;99.90
34877;DHT22;21086;44.780;17.194;2023-04-29T10:51:33;26.70;99.90
34877;DHT22;21086;44.780;17.194;2023-04-29T10:54:02;26.60;99.90
34877;DHT22;21086;44.780;17.194;2023-04-29T11:02:11;26.70;99.90
34877;DHT22;21086;44.780;17.194;2023-04-29T11:05:10;27.00;99.90
34877;DHT22;21086;44.780;17.194;2023-04-29T11:07:38;26.70;99.90
34877;DHT22;21086;44.780;17.194;2023-04-29T11:10:07;26.70;99.90
34877;DHT22;21086;44.780;17.194;2023-04-29T11:12:34;26.60;99.90
34877;DHT22;21086;44.780;17.194;2023-04-29T11:15:01;27.10;99.90
34877;DHT22;21086;44.780;17.194;2023-04-29T11:17:35;27.50;99.90
34877;DHT22;21086;44.780;17.194;2023-04-29T11:20:13;28.00;99.90
34877;DHT22;21086;44.780;17.194;2023-04-29T11:22:41;28.50;99.90
34877;DHT22;21086;44.780;17.194;2023-04-29T11:25:17;28.90;99.90
34877;DHT22;21086;44.780;17.194;2023-04-29T11:27:44;28.60;99.90
34877;DHT22;21086;44.780;17.194;2023-04-29T11:30:14;28.70;99.90
34877;DHT22;21086;44.780;17.194;2023-04-29T11:32:42;28.80;99.90
34877;DHT22;21086;44.780;17.194;2023-04-29T11:35:17;29.20;99.90
34877;DHT22;21086;44.780;17.194;2023-04-29T11:37:46;29.40;99.90
34877;DHT22;21086;44.780;17.194;2023-04-29T11:40:14;30.20;99.90
34877;DHT22;21086;44.780;17.194;2023-04-29T11:42:44;31.60;99.90
34877;DHT22;21086;44.780;17.194;2023-04-29T11:45:12;32.60;99.90
34877;DHT22;21086;44.780;17.194;2023-04-29T11:47:42;33.20;99.90
34877;DHT22;21086;44.780;17.194;2023-04-29T11:50:11;33.30;99.90
34877;DHT22;21086;44.780;17.194;2023-04-29T11:52:39;33.50;99.90
34877;DHT22;21086;44.780;17.194;2023-04-29T11:55:10;34.00;99.90
34877;DHT22;21086;44.780;17.194;2023-04-29T11:57:38;34.10;99.90
34877;DHT22;21086;44.780;17.194;2023-04-29T12:00:12;34.60;99.90
34877;DHT22;21086;44.780;17.194;2023-04-29T12:02:43;35.20;99.90
34877;DHT22;21086;44.780;17.194;2023-04-29T12:05:12;35.00;99.90
34877;DHT22;21086;44.780;17.194;2023-04-29T12:07:42;33.90;99.90
34877;DHT22;21086;44.780;17.194;2023-04-29T12:10:10;34.30;99.90
34877;DHT22;21086;44.780;17.194;2023-04-29T12:12:38;34.60;99.90
34877;DHT22;21086;44.780;17.194;2023-04-29T12:15:10;35.00;99.90
34877;DHT22;21086;44.780;17.194;2023-04-29T12:17:38;35.40;99.90
34877;DHT22;21086;44.780;17.194;2023-04-29T12:20:06;35.80;99.90
34877;DHT22;21086;44.780;17.194;2023-04-29T12:22:36;36.30;99.90
34877;DHT22;21086;44.780;17.194;2023-04-29T12:25:04;36.50;99.90
34877;DHT22;21086;44.780;17.194;2023-04-29T12:27:32;37.80;99.90
34877;DHT22;21086;44.780;17.194;2023-04-29T12:30:00;37.50;99.90
34877;DHT22;21086;44.780;17.194;2023-04-29T12:32:32;36.10;99.90
34877;DHT22;21086;44.780;17.194;2023-04-29T12:34:59;34.90;99.90
34877;DHT22;21086;44.780;17.194;2023-04-29T12:37:26;34.30;99.90
34877;DHT22;21086;44.780;17.194;2023-04-29T12:39:56;34.80;99.90
34877;DHT22;21086;44.780;17.194;2023-04-29T12:42:24;34.80;99.90
34877;DHT22;21086;44.780;17.194;2023-04-29T12:44:57;35.10;99.90
34877;DHT22;21086;44.780;17.194;2023-04-29T12:47:31;35.50;99.90
34877;DHT22;21086;44.780;17.194;2023-04-29T12:50:00;35.40;99.90
34877;DHT22;21086;44.780;17.194;2023-04-29T12:52:26;36.50;99.90
34877;DHT22;21086;44.780;17.194;2023-04-29T12:54:55;37.90;99.90
34877;DHT22;21086;44.780;17.194;2023-04-29T12:57:23;38.20;99.90
34877;DHT22;21086;44.780;17.194;2023-04-29T12:59:52;39.00;99.90
34877;DHT22;21086;44.780;17.194;2023-04-29T13:02:19;39.40;99.90
34877;DHT22;21086;44.780;17.194;2023-04-29T13:04:46;39.10;99.90
34877;DHT22;21086;44.780;17.194;2023-04-29T13:07:13;39.60;99.90
34877;DHT22;21086;44.780;17.194;2023-04-29T13:09:41;38.90;99.90
34877;DHT22;21086;44.780;17.194;2023-04-29T13:12:07;38.30;99.90
34877;DHT22;21086;44.780;17.194;2023-04-29T13:14:35;37.50;99.90
34877;DHT22;21086;44.780;17.194;2023-04-29T13:17:02;37.60;99.90
34877;DHT22;21086;44.780;17.194;2023-04-29T13:19:30;36.70;99.90
34877;DHT22;21086;44.780;17.194;2023-04-29T13:22:17;36.30;99.90
34877;DHT22;21086;44.780;17.194;2023-04-29T13:24:43;38.20;99.90
34877;DHT22;21086;44.780;17.194;2023-04-29T13:27:10;39.60;99.90
34877;DHT22;21086;44.780;17.194;2023-04-29T13:29:38;39.60;99.90
34877;DHT22;21086;44.780;17.194;2023-04-29T13:32:05;39.80;99.90
34877;DHT22;21086;44.780;17.194;2023-04-29T13:34:32;40.00;99.90
34877;DHT22;21086;44.780;17.194;2023-04-29T13:36:59;39.30;99.90
34877;DHT22;21086;44.780;17.194;2023-04-29T13:39:26;38.60;99.90
34877;DHT22;21086;44.780;17.194;2023-04-29T13:41:53;38.10;99.90
34877;DHT22;21086;44.780;17.194;2023-04-29T13:44:25;39.50;99.90
34877;DHT22;21086;44.780;17.194;2023-04-29T13:47:05;41.00;99.90
34877;DHT22;21086;44.780;17.194;2023-04-29T13:49:33;43.30;99.90
34877;DHT22;21086;44.780;17.194;2023-04-29T13:52:20;43.10;99.90
34877;DHT22;21086;44.780;17.194;2023-04-29T13:54:50;42.40;99.90
34877;DHT22;21086;44.780;17.194;2023-04-29T13:57:37;42.50;99.90
34877;DHT22;21086;44.780;17.194;2023-04-29T14:00:24;44.70;99.90
34877;DHT22;21086;44.780;17.194;2023-04-29T14:03:11;45.20;99.90
34877;DHT22;21086;44.780;17.194;2023-04-29T14:05:38;43.40;99.90
34877;DHT22;21086;44.780;17.194;2023-04-29T14:08:05;44.10;99.90
34877;DHT22;21086;44.780;17.194;2023-04-29T14:10:33;46.10;99.90
34877;DHT22;21086;44.780;17.194;2023-04-29T14:13:00;48.10;99.90
34877;DHT22;21086;44.780;17.194;2023-04-29T14:15:29;48.10;99.90
34877;DHT22;21086;44.780;17.194;2023-04-29T14:17:56;47.40;99.90
34877;DHT22;21086;44.780;17.194;2023-04-29T14:20:23;47.60;99.90
34877;DHT22;21086;44.780;17.194;2023-04-29T14:22:50;46.90;99.90
34877;DHT22;21086;44.780;17.194;2023-04-29T14:25:17;46.70;99.90
34877;DHT22;21086;44.780;17.194;2023-04-29T14:27:44;46.40;99.90
34877;DHT22;21086;44.780;17.194;2023-04-29T14:30:12;46.30;99.90
34877;DHT22;21086;44.780;17.194;2023-04-29T14:32:39;46.20;99.90
34877;DHT22;21086;44.780;17.194;2023-04-29T14:35:06;46.70;99.90
34877;DHT22;21086;44.780;17.194;2023-04-29T14:37:34;47.40;99.90
34877;DHT22;21086;44.780;17.194;2023-04-29T14:40:01;48.20;99.90
34877;DHT22;21086;44.780;17.194;2023-04-29T14:42:31;46.80;99.90
34877;DHT22;21086;44.780;17.194;2023-04-29T14:44:58;46.50;99.70
34877;DHT22;21086;44.780;17.194;2023-04-29T14:47:25;47.20;99.40
34877;DHT22;21086;44.780;17.194;2023-04-29T14:49:53;48.10;99.80
34877;DHT22;21086;44.780;17.194;2023-04-29T14:52:20;47.80;98.80
34877;DHT22;21086;44.780;17.194;2023-04-29T14:54:47;46.80;97.10
34877;DHT22;21086;44.780;17.194;2023-04-29T14:57:14;47.20;97.00
34877;DHT22;21086;44.780;17.194;2023-04-29T14:59:41;46.20;95.90
34877;DHT22;21086;44.780;17.194;2023-04-29T15:02:08;45.00;95.00
34877;DHT22;21086;44.780;17.194;2023-04-29T15:04:35;42.50;93.00
34877;DHT22;21086;44.780;17.194;2023-04-29T15:07:04;41.70;93.50
34877;DHT22;21086;44.780;17.194;2023-04-29T15:09:32;41.90;94.50
34877;DHT22;21086;44.780;17.194;2023-04-29T15:11:59;40.40;93.80
34877;DHT22;21086;44.780;17.194;2023-04-29T15:14:26;38.50;94.60
34877;DHT22;21086;44.780;17.194;2023-04-29T15:16:54;39.40;96.00
34877;DHT22;21086;44.780;17.194;2023-04-29T15:19:20;40.90;97.30
34877;DHT22;21086;44.780;17.194;2023-04-29T15:21:51;41.70;98.00
34877;DHT22;21086;44.780;17.194;2023-04-29T15:24:18;42.70;98.90
34877;DHT22;21086;44.780;17.194;2023-04-29T15:26:45;43.30;98.50
34877;DHT22;21086;44.780;17.194;2023-04-29T15:29:12;42.70;98.70
34877;DHT22;21086;44.780;17.194;2023-04-29T15:31:39;43.70;99.10
34877;DHT22;21086;44.780;17.194;2023-04-29T15:34:07;44.20;98.80
34877;DHT22;21086;44.780;17.194;2023-04-29T15:36:34;44.00;98.60
34877;DHT22;21086;44.780;17.194;2023-04-29T15:39:01;42.00;97.50
34877;DHT22;21086;44.780;17.194;2023-04-29T15:41:28;41.80;97.20
34877;DHT22;21086;44.780;17.194;2023-04-29T15:43:56;41.50;97.40
34877;DHT22;21086;44.780;17.194;2023-04-29T15:46:23;41.60;97.30
34877;DHT22;21086;44.780;17.194;2023-04-29T15:48:50;42.00;97.50
34877;DHT22;21086;44.780;17.194;2023-04-29T15:51:17;42.20;97.90
34877;DHT22;21086;44.780;17.194;2023-04-29T15:53:44;42.80;98.30